Time;durP1;ratioP1;P1;durP2;ratioP2;P2;SDS_P1;SDS_P2;PMS_P1;PMS_P2;Temp;Humidity;BMP_temperature;BMP_pressure;BME280_temperature;BME280_humidity;BME280_pressure;Samples;Min_cycle;Max_cycle;Signal;HPM_P1;HPM_P2
2022/02/11 00:00:14;;;;;;;7.63;4.30;;;;;;;4.09;81.74;96950.88;2063831;28;20250;-67
2022/02/11 00:07:05;;;;;;;9.32;4.22;;;;;;;4.00;82.05;96953.84;2063404;28;20205;-67
2022/02/11 00:08:06;;;;;;;7.38;3.97;;;;;;;4.02;82.05;96961.53;2063061;28;20199;-67
2022/02/11 00:09:08;;;;;;;8.57;4.90;;;;;;;4.06;82.04;96958.78;2062793;28;20673;-67
2022/02/11 00:10:10;;;;;;;9.63;4.10;;;;;;;4.08;81.84;96969.13;2062587;28;20194;-67
2022/02/11 00:11:18;;;;;;;6.97;4.18;;;;;;;4.09;81.72;96961.25;2063814;28;20237;-67
2022/02/11 00:12:20;;;;;;;7.90;4.78;;;;;;;4.16;81.76;96962.72;2063168;28;20202;-67
2022/02/11 00:13:21;;;;;;;6.95;4.00;;;;;;;4.25;81.44;96963.28;2064252;28;20547;-67
2022/02/11 00:14:28;;;;;;;8.10;4.68;;;;;;;4.15;81.29;96955.84;2064026;28;20206;-68
2022/02/11 00:15:43;;;;;;;6.45;4.40;;;;;;;4.26;81.33;96952.03;2062983;28;20210;-68
2022/02/11 00:16:44;;;;;;;8.10;4.30;;;;;;;4.28;81.00;96965.78;2062967;28;20205;-67
2022/02/11 00:17:46;;;;;;;8.43;4.45;;;;;;;4.30;81.20;96961.38;2063289;28;20198;-67
2022/02/11 00:18:47;;;;;;;12.90;4.57;;;;;;;4.25;81.05;96958.94;2063964;28;20198;-68
2022/02/11 00:19:49;;;;;;;11.50;4.97;;;;;;;4.25;81.22;96956.34;2063899;28;20198;-68
2022/02/11 00:20:52;;;;;;;9.25;3.80;;;;;;;4.25;81.59;96960.69;2063663;28;20226;-67
2022/02/11 00:21:53;;;;;;;5.55;3.70;;;;;;;4.27;81.15;96958.88;2063610;28;20198;-67
2022/02/11 00:22:55;;;;;;;6.10;3.92;;;;;;;4.33;81.35;96951.72;2063299;28;20414;-67
2022/02/11 00:23:57;;;;;;;8.82;4.63;;;;;;;4.38;80.99;96956.72;2064042;28;20194;-67
2022/02/11 00:24:58;;;;;;;7.68;4.43;;;;;;;4.42;80.74;96958.28;2063273;28;20198;-67
2022/02/11 00:26:02;;;;;;;11.35;5.03;;;;;;;4.38;81.01;96958.50;2062920;28;20265;-67
2022/02/11 00:27:40;;;;;;;6.40;3.67;;;;;;;4.37;80.85;96957.63;2064080;28;20672;-68
2022/02/11 00:32:12;;;;;;;8.20;5.57;;;;;;;4.43;80.35;96948.75;2064119;28;20199;-67
2022/02/11 00:34:15;;;;;;;9.57;4.35;;;;;;;4.11;80.95;96930.09;2063887;28;20194;-67
2022/02/11 00:35:32;;;;;;;7.70;4.00;;;;;;;4.23;79.90;96942.59;2063637;28;20544;-67
2022/02/11 00:37:10;;;;;;;8.65;4.60;;;;;;;4.25;79.40;96945.97;2063611;28;20209;-67
2022/02/11 00:38:08;;;;;;;6.95;4.07;;;;;;;4.16;79.04;96954.13;2061887;28;20657;-67
2022/02/11 00:43:58;;;;;;;10.48;4.65;;;;;;;4.04;78.96;96939.00;2063769;28;20213;-67
2022/02/11 01:03:00;;;;;;;6.75;4.35;;;;;;;3.77;78.54;96967.63;2062398;28;21027;-67
2022/02/11 01:04:04;;;;;;;7.03;4.13;;;;;;;3.68;78.59;96955.81;2063755;28;20202;-67
2022/02/11 01:05:05;;;;;;;6.53;3.90;;;;;;;3.81;78.29;96976.13;2063835;28;20913;-66
2022/02/11 01:06:08;;;;;;;7.55;4.05;;;;;;;3.69;78.11;96957.53;2063330;28;20222;-66
2022/02/11 01:07:10;;;;;;;8.85;4.68;;;;;;;3.77;78.12;96970.22;2063748;28;20546;-66
2022/02/11 01:08:11;;;;;;;12.93;4.72;;;;;;;3.79;78.51;96973.59;2063706;28;20202;-66
2022/02/11 01:09:14;;;;;;;11.38;4.15;;;;;;;3.82;78.17;96972.63;2061943;28;20198;-66
2022/02/11 01:10:17;;;;;;;7.28;3.92;;;;;;;3.78;78.70;96976.22;2063537;28;20194;-66
2022/02/11 01:11:26;;;;;;;10.18;6.10;;;;;;;3.75;78.45;96978.03;2062828;28;20670;-66
2022/02/11 01:12:29;;;;;;;7.32;4.20;;;;;;;3.73;78.39;96974.66;2063618;28;20213;-66
2022/02/11 01:13:30;;;;;;;8.50;4.43;;;;;;;3.75;77.71;96967.69;2063849;28;20563;-67
2022/02/11 01:15:37;;;;;;;12.65;4.43;;;;;;;3.78;77.30;96971.88;2063300;28;20264;-66
2022/02/11 01:16:46;;;;;;;7.63;3.72;;;;;;;3.79;77.33;96959.81;2063529;28;20205;-66
2022/02/11 01:17:53;;;;;;;12.93;4.75;;;;;;;3.82;77.52;96962.28;2061876;28;20205;-66
2022/02/11 01:19:07;;;;;;;7.93;4.15;;;;;;;3.79;77.76;96959.81;2063763;28;20210;-67
2022/02/11 01:21:20;;;;;;;8.02;4.57;;;;;;;3.75;78.00;96957.31;2063335;28;20229;-66
2022/02/11 01:23:55;;;;;;;6.55;3.50;;;;;;;3.78;78.31;96953.75;2063500;28;20697;-66
2022/02/11 01:26:32;;;;;;;8.48;4.22;;;;;;;3.78;78.15;96950.31;2063271;28;20209;-67
2022/02/11 01:29:16;;;;;;;9.40;4.63;;;;;;;3.75;78.04;96954.72;2065186;28;20541;-66
2022/02/11 01:30:59;;;;;;;7.63;3.88;;;;;;;3.73;78.29;96953.94;2064738;28;20249;-66
2022/02/11 01:36:05;;;;;;;7.57;3.40;;;;;;;3.75;77.82;96946.13;2065275;28;20190;-66
2022/02/11 01:37:02;;;;;;;7.82;3.80;;;;;;;3.71;78.27;96947.97;2059511;28;20587;-66
2022/02/11 01:41:08;;;;;;;6.18;3.33;;;;;;;3.71;77.96;96952.31;2064852;28;20213;-66
2022/02/11 01:44:55;;;;;;;6.55;3.50;;;;;;;3.69;78.24;96949.75;2065368;28;20198;-66
2022/02/11 01:52:09;;;;;;;8.98;3.20;;;;;;;3.56;79.24;96938.97;2060187;28;20605;-66
2022/02/11 01:55:58;;;;;;;7.57;3.63;;;;;;;3.52;80.80;96940.00;2064173;28;20210;-67
2022/02/11 01:57:06;;;;;;;5.07;3.33;;;;;;;3.51;80.97;96947.84;2065040;28;20681;-66
2022/02/11 02:00:59;;;;;;;9.10;3.40;;;;;;;3.37;82.54;96943.09;2064606;28;20653;-66
2022/02/11 02:19:07;;;;;;;12.70;3.83;;;;;;;3.29;86.67;96946.00;2064805;28;20202;-64
2022/02/11 02:23:55;;;;;;;11.57;3.47;;;;;;;3.30;87.33;96952.00;2064568;28;20548;-63
2022/02/11 02:25:09;;;;;;;6.53;3.88;;;;;;;3.19;88.21;96954.09;2064199;28;20290;-63
2022/02/11 02:29:24;;;;;;;6.00;3.75;;;;;;;3.10;88.04;96950.09;2063596;28;20314;-62
2022/02/11 02:32:17;;;;;;;9.45;3.85;;;;;;;3.06;90.18;96951.94;2064284;28;20230;-62
2022/02/11 02:33:10;;;;;;;12.15;4.20;;;;;;;3.17;90.32;96955.03;2063334;28;20194;-61
2022/02/11 02:37:41;;;;;;;9.75;3.63;;;;;;;2.92;91.47;96957.56;2064877;28;20205;-61
2022/02/11 02:39:14;;;;;;;6.00;3.92;;;;;;;2.91;92.00;96966.22;2063399;28;20209;-60
2022/02/11 02:57:44;;;;;;;6.15;2.55;;;;;;;2.62;94.39;96977.47;2064383;28;20383;-58
2022/02/11 02:58:58;;;;;;;3.90;2.88;;;;;;;2.50;94.41;96983.88;2064672;28;20228;-58
2022/02/11 03:14:53;;;;;;;4.35;2.80;;;;;;;2.25;95.57;97011.34;2064430;28;20205;-58
2022/02/11 03:49:20;;;;;;;1.02;0.73;;;;;;;0.37;96.39;97093.38;2063500;28;20229;-59
2022/02/11 03:51:49;;;;;;;1.00;0.70;;;;;;;0.41;96.15;97107.06;2062976;28;20202;-59
2022/02/11 03:57:32;;;;;;;0.82;0.80;;;;;;;0.30;95.79;97131.31;2062957;28;20198;-58
2022/02/11 04:53:38;;;;;;;1.40;1.30;;;;;;;0.40;96.37;97232.50;2063681;28;20745;-59
2022/02/11 04:55:39;;;;;;;1.65;1.23;;;;;;;0.49;95.84;97239.19;2067735;28;20200;-60
2022/02/11 04:56:44;;;;;;;2.20;1.60;;;;;;;0.47;96.24;97234.09;2063369;28;20198;-59
2022/02/11 05:00:26;;;;;;;2.40;2.20;;;;;;;0.42;97.21;97248.78;2062945;28;20293;-60
2022/02/11 05:01:28;;;;;;;2.20;2.00;;;;;;;0.48;96.34;97251.25;2063434;28;20568;-60
2022/02/11 05:02:30;;;;;;;3.05;2.08;;;;;;;0.47;96.77;97257.28;2063116;28;20231;-60
2022/02/11 05:03:35;;;;;;;2.50;1.80;;;;;;;-0.21;96.42;97147.72;2062523;28;20503;-60
2022/02/11 05:04:36;;;;;;;2.00;1.80;;;;;;;0.30;97.04;97262.75;2063353;28;20202;-60
2022/02/11 05:05:56;;;;;;;2.00;1.33;;;;;;;0.27;97.51;97262.78;2062687;28;20237;-60
2022/02/11 05:06:59;;;;;;;2.53;1.90;;;;;;;0.28;97.49;97261.06;2063475;28;20660;-60
2022/02/11 05:08:03;;;;;;;1.90;1.40;;;;;;;0.44;97.13;97264.22;2063480;28;20413;-60
2022/02/11 05:09:04;;;;;;;2.10;1.33;;;;;;;0.49;96.61;97255.53;2063625;28;20199;-60
2022/02/11 05:10:08;;;;;;;3.88;1.63;;;;;;;0.59;96.65;97263.94;2063578;28;20692;-60
2022/02/11 05:11:09;;;;;;;2.70;1.92;;;;;;;0.57;96.36;97268.28;2062850;28;20218;-60
2022/02/11 05:12:11;;;;;;;1.52;1.42;;;;;;;0.42;96.52;97264.25;2062902;28;20194;-60
2022/02/11 05:13:13;;;;;;;2.00;1.52;;;;;;;0.34;96.60;97277.25;2063476;28;20455;-60
2022/02/11 05:14:16;;;;;;;1.85;1.50;;;;;;;0.33;96.51;97279.84;2063436;28;20728;-60
2022/02/11 05:15:17;;;;;;;2.38;2.10;;;;;;;0.39;97.12;97275.47;2063058;28;20209;-60
2022/02/11 05:16:19;;;;;;;2.50;1.65;;;;;;;0.35;97.00;97273.81;2063344;28;20203;-60
2022/02/11 05:17:20;;;;;;;2.30;1.95;;;;;;;0.30;96.54;97274.78;2063498;28;20692;-60
2022/02/11 05:18:22;;;;;;;2.47;2.08;;;;;;;0.37;96.70;97276.34;2063041;28;20202;-61
2022/02/11 05:19:23;;;;;;;2.45;1.73;;;;;;;0.36;96.02;97275.50;2063345;28;20205;-61
2022/02/11 05:20:25;;;;;;;2.20;2.00;;;;;;;0.40;97.17;97281.47;2061273;28;20198;-60
2022/02/11 05:21:26;;;;;;;2.17;1.98;;;;;;;0.38;97.14;97284.06;2063596;28;20245;-60
2022/02/11 05:22:28;;;;;;;2.63;1.67;;;;;;;0.38;96.97;97280.66;2062475;28;20729;-61
2022/02/11 05:23:29;;;;;;;2.20;1.80;;;;;;;0.39;97.30;97269.44;2062068;28;20201;-61
2022/02/11 05:24:31;;;;;;;1.88;1.63;;;;;;;0.40;97.10;97281.47;2062520;28;20654;-61
2022/02/11 05:25:34;;;;;;;2.78;1.50;;;;;;;0.08;97.66;97276.84;2062944;28;20229;-60
2022/02/11 05:26:35;;;;;;;3.63;2.15;;;;;;;0.26;97.91;97273.13;2063402;28;20206;-61
2022/02/11 05:27:37;;;;;;;1.90;1.70;;;;;;;0.33;97.40;97278.16;2062595;28;20233;-61
2022/02/11 05:28:38;;;;;;;25.15;22.13;;;;;;;0.37;97.30;97278.94;2063208;28;20205;-61
2022/02/11 05:29:42;;;;;;;3.45;2.47;;;;;;;0.39;97.15;97283.19;2063288;28;20285;-60
2022/02/11 05:30:43;;;;;;;2.58;2.10;;;;;;;0.38;96.97;97290.94;2062124;28;20218;-61
2022/02/11 05:31:45;;;;;;;3.47;2.85;;;;;;;0.32;97.30;97291.91;2062690;28;20199;-63
2022/02/11 05:32:46;;;;;;;2.35;2.10;;;;;;;0.27;97.75;97285.13;2063356;28;20201;-61
2022/02/11 05:33:48;;;;;;;2.13;1.77;;;;;;;0.32;97.84;97286.75;2063325;28;20198;-61
2022/02/11 05:34:49;;;;;;;2.63;1.65;;;;;;;0.35;97.63;97285.84;2063320;28;20679;-61
2022/02/11 05:35:51;;;;;;;2.88;1.90;;;;;;;0.34;97.03;97297.88;2062765;28;20218;-61
2022/02/11 05:36:52;;;;;;;2.30;1.88;;;;;;;0.28;97.28;97297.16;2063237;28;20333;-61
2022/02/11 05:37:54;;;;;;;2.60;1.95;;;;;;;0.30;97.41;97300.53;2063295;28;20535;-61
2022/02/11 05:38:56;;;;;;;2.10;1.90;;;;;;;0.35;97.64;97296.16;2063397;28;20731;-61
2022/02/11 05:39:57;;;;;;;2.42;1.67;;;;;;;0.30;96.57;97296.22;2063355;28;20213;-61
2022/02/11 05:40:59;;;;;;;1.95;1.60;;;;;;;0.29;96.09;97302.25;2061735;28;20210;-60
2022/02/11 05:42:00;;;;;;;4.05;2.13;;;;;;;0.25;96.52;97299.75;2063163;28;20198;-60
2022/02/11 05:43:02;;;;;;;2.97;2.03;;;;;;;0.25;96.09;97294.59;2061919;28;20214;-60
2022/02/11 05:44:04;;;;;;;3.42;2.00;;;;;;;0.27;97.05;97290.28;2063299;28;20194;-60
2022/02/11 05:45:05;;;;;;;2.95;2.17;;;;;;;0.35;96.49;97285.84;2063423;28;20241;-61
2022/02/11 05:46:10;;;;;;;4.65;2.17;;;;;;;0.34;96.59;97297.88;2062766;28;20228;-60
2022/02/11 05:47:12;;;;;;;3.17;2.10;;;;;;;0.33;96.56;97300.47;2063109;28;20490;-61
2022/02/11 05:48:13;;;;;;;3.45;2.00;;;;;;;0.33;96.03;97315.94;2063147;28;20642;-60
2022/02/11 05:49:16;;;;;;;2.72;2.00;;;;;;;0.38;96.05;97312.41;2062608;28;20387;-60
2022/02/11 05:50:17;;;;;;;5.20;2.05;;;;;;;0.45;96.50;97317.47;2060939;28;20664;-60
2022/02/11 05:51:33;;;;;;;3.35;2.47;;;;;;;0.43;96.54;97320.06;2063087;28;20205;-61
2022/02/11 05:52:34;;;;;;;6.05;2.58;;;;;;;0.46;96.37;97332.06;2063092;28;20213;-61
2022/02/11 05:53:36;;;;;;;5.68;2.75;;;;;;;0.52;96.17;97325.06;2062549;28;20195;-60
2022/02/11 05:54:38;;;;;;;3.38;2.45;;;;;;;0.52;96.21;97330.22;2062956;28;20198;-60
2022/02/11 05:55:39;;;;;;;6.95;2.28;;;;;;;0.47;95.86;97326.00;2062785;28;20342;-61
2022/02/11 05:56:41;;;;;;;5.20;2.63;;;;;;;0.50;95.45;97337.13;2062488;28;20198;-61
2022/02/11 05:57:42;;;;;;;6.03;2.72;;;;;;;0.44;96.19;97331.25;2062907;28;20246;-61
2022/02/11 05:58:44;;;;;;;3.50;2.60;;;;;;;0.47;96.32;97334.63;2062754;28;20222;-61
2022/02/11 05:59:45;;;;;;;2.60;2.33;;;;;;;0.44;96.39;97337.22;2063068;28;20206;-60
2022/02/11 06:00:47;;;;;;;3.30;2.85;;;;;;;0.52;96.22;97350.00;2062633;28;20254;-61
2022/02/11 06:01:48;;;;;;;4.30;3.20;;;;;;;0.35;96.42;97348.56;2063138;28;20205;-61
2022/02/11 06:02:52;;;;;;;4.90;2.65;;;;;;;0.36;96.81;97345.09;2063056;28;20202;-60
2022/02/11 06:03:53;;;;;;;7.43;2.60;;;;;;;0.42;96.95;97343.31;2062169;28;20221;-62
2022/02/11 06:04:55;;;;;;;7.60;2.90;;;;;;;0.47;97.00;97346.63;2063113;28;20209;-61
2022/02/11 06:05:56;;;;;;;4.47;2.55;;;;;;;0.48;96.44;97346.63;2062843;28;20856;-61
2022/02/11 06:06:59;;;;;;;5.22;2.45;;;;;;;0.52;96.61;97353.41;2062325;28;20408;-61
2022/02/11 06:08:01;;;;;;;6.65;2.97;;;;;;;0.47;96.64;97349.22;2063115;28;20206;-61
2022/02/11 06:09:03;;;;;;;7.15;3.03;;;;;;;0.39;96.60;97346.75;2063423;28;20711;-61
2022/02/11 06:10:05;;;;;;;7.75;3.10;;;;;;;0.44;96.89;97351.84;2063167;28;20700;-61
2022/02/11 06:11:06;;;;;;;6.13;2.58;;;;;;;0.46;96.89;97345.78;2062730;28;20218;-61
2022/02/11 06:12:08;;;;;;;4.70;2.67;;;;;;;0.40;96.84;97363.94;2062973;28;20211;-61
2022/02/11 06:13:10;;;;;;;5.43;3.22;;;;;;;0.41;97.11;97357.88;2063252;28;20206;-61
2022/02/11 06:14:13;;;;;;;5.57;3.25;;;;;;;0.38;96.61;97351.06;2063289;28;20203;-61
2022/02/11 06:15:14;;;;;;;4.28;3.17;;;;;;;0.33;97.26;97359.75;2064286;28;20646;-60
2022/02/11 06:16:16;;;;;;;3.75;3.00;;;;;;;0.31;97.61;97364.91;2064674;28;20202;-62
2022/02/11 06:17:17;;;;;;;6.10;3.10;;;;;;;0.27;97.48;97367.56;2063566;28;20209;-61
2022/02/11 06:18:19;;;;;;;4.80;2.55;;;;;;;0.26;97.42;97360.75;2064595;28;20202;-61
2022/02/11 06:19:20;;;;;;;6.40;2.90;;;;;;;0.23;97.16;97360.78;2063957;28;20206;-60
2022/02/11 06:20:27;;;;;;;4.25;2.88;;;;;;;0.31;97.00;97369.22;2064100;28;20194;-61
2022/02/11 06:21:29;;;;;;;5.43;2.85;;;;;;;0.21;96.73;97358.22;2064117;28;20203;-63
2022/02/11 06:22:31;;;;;;;9.60;2.78;;;;;;;0.25;96.64;97356.44;2063438;28;20198;-61
2022/02/11 06:23:32;;;;;;;7.10;4.45;;;;;;;0.20;95.97;97361.69;2063579;28;20221;-61
2022/02/11 06:24:34;;;;;;;5.07;3.80;;;;;;;0.01;95.72;97345.66;2064675;28;20554;-63
2022/02/11 06:25:35;;;;;;;7.63;3.25;;;;;;;0.22;96.57;97369.34;2064151;28;20669;-59
2022/02/11 06:26:37;;;;;;;8.05;4.68;;;;;;;0.16;95.97;97372.91;2064506;28;20202;-59
2022/02/11 06:27:38;;;;;;;3.78;2.47;;;;;;;0.07;96.05;97376.47;2064423;28;20203;-58
2022/02/11 06:28:40;;;;;;;4.15;2.72;;;;;;;0.11;96.15;97383.25;2064449;28;20546;-59
2022/02/11 06:29:42;;;;;;;3.03;1.83;;;;;;;0.15;96.01;97391.81;2064546;28;20562;-59
2022/02/11 06:30:43;;;;;;;4.55;2.25;;;;;;;0.07;96.35;97384.19;2064020;28;20222;-58
2022/02/11 06:31:45;;;;;;;12.25;3.03;;;;;;;0.15;96.15;97384.91;2064471;28;20203;-58
2022/02/11 06:32:47;;;;;;;9.90;2.25;;;;;;;-0.16;95.99;97327.84;2064328;28;20428;-58
2022/02/11 06:33:49;;;;;;;3.85;2.17;;;;;;;0.07;96.44;97380.75;2064441;28;20217;-59
2022/02/11 06:34:54;;;;;;;5.50;2.15;;;;;;;0.11;96.68;97388.41;2064575;28;20199;-58
2022/02/11 06:35:55;;;;;;;4.20;2.30;;;;;;;0.12;96.57;97387.56;2064009;28;20226;-58
2022/02/11 06:36:57;;;;;;;2.65;2.00;;;;;;;0.17;97.08;97398.63;2064661;28;20672;-58
2022/02/11 06:37:58;;;;;;;3.53;2.35;;;;;;;0.13;96.89;97391.81;2064301;28;20205;-58
2022/02/11 06:39:00;;;;;;;3.97;2.53;;;;;;;0.12;97.53;97392.72;2064530;28;20199;-58
2022/02/11 06:40:03;;;;;;;3.03;2.30;;;;;;;0.07;97.45;97389.34;2064510;28;20550;-58
2022/02/11 06:41:05;;;;;;;3.92;2.90;;;;;;;0.02;97.24;97373.13;2064278;28;20720;-58
2022/02/11 06:42:07;;;;;;;4.22;2.70;;;;;;;0.20;97.28;97402.91;2064249;28;20203;-59
2022/02/11 06:43:08;;;;;;;2.92;2.58;;;;;;;0.27;97.38;97413.97;2064418;28;20209;-59
2022/02/11 06:44:09;;;;;;;7.30;3.90;;;;;;;0.20;97.86;97410.63;2064549;28;20209;-59
2022/02/11 06:45:12;;;;;;;6.80;2.58;;;;;;;0.27;97.44;97422.53;2063928;28;20206;-59
2022/02/11 06:46:13;;;;;;;3.67;2.47;;;;;;;0.19;97.11;97412.34;2064639;28;20195;-58
2022/02/11 06:47:17;;;;;;;3.63;2.83;;;;;;;0.21;97.31;97419.19;2064474;28;20202;-59
2022/02/11 06:48:21;;;;;;;4.53;2.72;;;;;;;0.21;97.52;97419.19;2063362;28;20205;-59
2022/02/11 06:49:22;;;;;;;6.20;2.65;;;;;;;0.25;97.37;97416.56;2064598;28;20217;-59
2022/02/11 06:50:24;;;;;;;6.00;3.00;;;;;;;-0.06;97.20;97368.06;2064142;28;20215;-59
2022/02/11 06:51:25;;;;;;;4.15;2.83;;;;;;;0.29;97.51;97432.81;2064551;28;20199;-59
2022/02/11 06:52:27;;;;;;;4.45;3.25;;;;;;;0.32;97.68;97437.94;2063595;28;20365;-60
2022/02/11 06:53:28;;;;;;;3.67;2.25;;;;;;;0.27;97.36;97437.16;2064524;28;20203;-58
2022/02/11 06:54:30;;;;;;;4.47;2.20;;;;;;;0.12;97.27;97433.09;2064370;28;20199;-58
2022/02/11 06:55:33;;;;;;;6.65;3.45;;;;;;;0.12;97.93;97436.50;2063962;28;20272;-58
2022/02/11 06:56:34;;;;;;;10.48;2.80;;;;;;;0.10;97.94;97438.25;2063626;28;20581;-58
2022/02/11 06:57:36;;;;;;;4.10;3.05;;;;;;;0.04;98.17;97443.50;2064433;28;20198;-58
2022/02/11 06:58:37;;;;;;;5.18;3.40;;;;;;;0.02;98.62;97447.81;2062722;28;20205;-58
2022/02/11 06:59:39;;;;;;;7.53;3.30;;;;;;;0.03;98.90;97451.22;2064391;28;20205;-58
2022/02/11 07:00:45;;;;;;;5.57;3.00;;;;;;;-0.11;98.31;97435.97;2063928;28;20337;-58
2022/02/11 07:01:47;;;;;;;5.13;2.90;;;;;;;0.02;98.17;97460.69;2063475;28;20198;-58
2022/02/11 07:02:49;;;;;;;6.72;3.53;;;;;;;-0.01;98.14;97451.25;2064180;28;20198;-58
2022/02/11 07:03:51;;;;;;;7.07;3.13;;;;;;;0.06;98.14;97461.47;2064293;28;20211;-58
2022/02/11 07:04:53;;;;;;;6.05;3.33;;;;;;;0.02;97.43;97465.84;2063922;28;20579;-58
2022/02/11 07:05:56;;;;;;;5.50;3.50;;;;;;;-0.08;97.54;97467.69;2063720;28;20785;-58
2022/02/11 07:06:58;;;;;;;8.20;3.55;;;;;;;-0.11;97.16;97461.72;2063217;28;20214;-60
2022/02/11 07:08:00;;;;;;;12.43;5.13;;;;;;;-0.02;97.24;97469.31;2064104;28;20198;-60
2022/02/11 07:09:01;;;;;;;16.08;7.10;;;;;;;0.00;97.28;97470.16;2064258;28;20198;-59
2022/02/11 07:10:03;;;;;;;12.43;6.43;;;;;;;-0.05;96.94;97462.47;2064124;28;20364;-60
2022/02/11 07:11:05;;;;;;;4.43;3.17;;;;;;;-0.04;97.32;97471.03;2063788;28;20222;-59
2022/02/11 07:12:07;;;;;;;4.10;3.40;;;;;;;0.05;97.04;97470.94;2064278;28;20380;-61
2022/02/11 07:13:13;;;;;;;5.32;3.25;;;;;;;0.02;96.80;97471.00;2063990;28;20457;-58
2022/02/11 07:14:15;;;;;;;5.38;3.88;;;;;;;-0.08;97.33;97479.69;2063065;28;20740;-59
2022/02/11 07:15:17;;;;;;;10.60;5.28;;;;;;;-0.14;97.34;97477.19;2063743;28;20194;-59
2022/02/11 07:16:18;;;;;;;6.85;4.60;;;;;;;-0.28;97.40;97452.47;2064133;28;20213;-59
2022/02/11 07:17:20;;;;;;;6.15;3.45;;;;;;;-0.15;97.73;97478.06;2064159;28;20654;-59
2022/02/11 07:18:21;;;;;;;7.63;3.80;;;;;;;-0.11;97.02;97483.16;2064338;28;20678;-58
2022/02/11 07:19:23;;;;;;;3.45;2.88;;;;;;;-0.19;97.16;97482.41;2063494;28;20550;-58
2022/02/11 07:20:24;;;;;;;7.45;3.15;;;;;;;-0.13;97.15;97484.91;2062537;28;20202;-59
2022/02/11 07:21:26;;;;;;;6.40;3.30;;;;;;;-0.05;96.84;97489.97;2064284;28;20198;-59
2022/02/11 07:22:34;;;;;;;4.68;2.85;;;;;;;-0.08;97.15;97490.84;2064080;28;20201;-59
2022/02/11 07:23:36;;;;;;;10.82;3.60;;;;;;;0.03;96.76;97498.44;2063871;28;20205;-59
2022/02/11 07:24:37;;;;;;;8.90;4.10;;;;;;;0.12;96.63;97498.31;2064215;28;20203;-59
2022/02/11 07:25:39;;;;;;;9.95;3.50;;;;;;;0.08;96.09;97506.97;2063513;28;20222;-59
2022/02/11 07:26:41;;;;;;;7.43;3.40;;;;;;;0.43;95.68;97500.47;2064074;28;20194;-59
2022/02/11 07:27:42;;;;;;;6.57;3.30;;;;;;;1.12;93.11;97511.47;2064152;28;20584;-59
2022/02/11 07:29:02;;;;;;;4.22;2.53;;;;;;;1.76;89.09;97518.06;2063994;28;20198;-59
2022/02/11 07:30:06;;;;;;;7.07;3.03;;;;;;;2.17;86.23;97524.13;2064029;28;20198;-60
2022/02/11 07:31:07;;;;;;;6.70;2.80;;;;;;;2.73;84.15;97522.94;2062105;28;20225;-59
2022/02/11 07:32:10;;;;;;;3.50;2.33;;;;;;;3.02;83.38;97524.00;2064120;28;20205;-59
2022/02/11 07:33:11;;;;;;;8.10;2.47;;;;;;;3.55;81.37;97527.00;2063690;28;20257;-59
2022/02/11 07:34:13;;;;;;;7.90;2.47;;;;;;;3.84;78.87;97531.41;2064209;28;20203;-59
2022/02/11 07:35:14;;;;;;;5.97;2.00;;;;;;;3.84;78.09;97538.31;2063655;28;20209;-60
2022/02/11 07:36:16;;;;;;;4.40;2.30;;;;;;;3.90;78.49;97539.03;2063786;28;20237;-59
2022/02/11 07:37:17;;;;;;;16.73;2.40;;;;;;;4.21;76.91;97534.72;2064000;28;20202;-60
2022/02/11 07:38:25;;;;;;;5.82;2.22;;;;;;;4.70;75.11;97544.47;2062545;28;20729;-59
2022/02/11 07:39:28;;;;;;;4.53;1.98;;;;;;;5.25;73.02;97541.06;2064226;28;20748;-59
2022/02/11 07:40:31;;;;;;;11.20;2.58;;;;;;;5.31;72.67;97539.13;2062492;28;20206;-60
2022/02/11 07:41:33;;;;;;;4.70;2.58;;;;;;;5.30;71.83;97544.38;2062783;28;20202;-60
2022/02/11 07:42:34;;;;;;;5.00;2.53;;;;;;;4.79;71.87;97542.53;2064041;28;20199;-60
2022/02/11 07:43:35;;;;;;;3.33;1.73;;;;;;;4.29;72.56;97554.34;2063951;28;20206;-60
2022/02/11 07:44:43;;;;;;;5.28;1.63;;;;;;;4.73;72.31;97543.56;2064024;28;20639;-60
2022/02/11 07:45:44;;;;;;;5.40;2.13;;;;;;;5.05;70.97;97559.88;2063581;28;20230;-60
2022/02/11 07:46:48;;;;;;;9.68;2.97;;;;;;;4.80;72.64;97564.97;2063939;28;20196;-60
2022/02/11 07:47:50;;;;;;;12.30;2.08;;;;;;;5.28;70.34;97567.78;2063343;28;20207;-59
2022/02/11 07:48:52;;;;;;;6.40;2.33;;;;;;;4.79;70.24;97566.72;2062976;28;20206;-60
2022/02/11 07:49:55;;;;;;;7.85;2.25;;;;;;;5.27;69.84;97573.91;2063856;28;20195;-60
2022/02/11 07:50:56;;;;;;;5.80;2.30;;;;;;;5.30;68.94;97510.59;2063498;28;20219;-60
2022/02/11 07:51:58;;;;;;;5.43;2.15;;;;;;;4.97;68.63;97569.66;2063324;28;20201;-60
2022/02/11 07:53:00;;;;;;;6.90;2.03;;;;;;;4.95;71.24;97575.75;2063916;28;20714;-60
2022/02/11 07:54:01;;;;;;;10.45;2.55;;;;;;;5.58;68.50;97578.06;2063951;28;20198;-59
2022/02/11 07:55:04;;;;;;;5.82;2.40;;;;;;;5.64;67.70;97575.25;2064008;28;20664;-60
2022/02/11 07:56:07;;;;;;;10.77;2.60;;;;;;;5.81;67.73;97585.09;2063565;28;20711;-60
2022/02/11 07:57:08;;;;;;;5.88;2.72;;;;;;;5.62;67.01;97586.63;2064063;28;20566;-60
2022/02/11 07:58:14;;;;;;;5.20;2.67;;;;;;;5.32;68.65;97589.31;2063669;28;20243;-60
2022/02/11 07:59:16;;;;;;;10.43;2.70;;;;;;;5.31;69.92;97593.69;2064082;28;20199;-59
2022/02/11 08:00:17;;;;;;;7.95;2.60;;;;;;;5.65;68.44;97592.56;2063277;28;20211;-60
2022/02/11 08:01:20;;;;;;;4.85;2.03;;;;;;;5.92;66.95;97598.59;2064023;28;20201;-60
2022/02/11 08:02:21;;;;;;;7.15;2.70;;;;;;;5.46;67.47;97586.28;2064068;28;20724;-60
2022/02/11 08:03:23;;;;;;;12.57;2.65;;;;;;;5.31;70.29;97609.25;2063881;28;20668;-60
2022/02/11 08:04:25;;;;;;;6.07;2.75;;;;;;;4.52;70.83;97605.56;2063913;28;20218;-60
2022/02/11 08:05:28;;;;;;;4.90;2.45;;;;;;;4.31;71.96;97609.63;2062132;28;20566;-60
2022/02/11 08:06:30;;;;;;;6.55;2.30;;;;;;;4.19;72.62;97601.31;2063331;28;20558;-60
2022/02/11 08:07:31;;;;;;;5.95;2.03;;;;;;;3.92;73.21;97612.41;2063859;28;20727;-60
2022/02/11 08:08:33;;;;;;;8.77;2.25;;;;;;;4.04;72.93;97618.13;2063451;28;20208;-60
2022/02/11 08:09:35;;;;;;;5.45;2.53;;;;;;;3.48;75.56;97595.38;2063746;28;20234;-60
2022/02/11 08:10:37;;;;;;;6.88;3.38;;;;;;;3.12;76.68;97619.53;2061507;28;20219;-60
2022/02/11 08:11:38;;;;;;;8.15;2.17;;;;;;;3.10;76.84;97612.69;2063770;28;20202;-61
2022/02/11 08:12:40;;;;;;;7.00;2.53;;;;;;;3.50;75.02;97629.88;2063758;28;20528;-60
2022/02/11 08:13:42;;;;;;;6.00;2.20;;;;;;;4.33;74.38;97633.78;2063737;28;20210;-61
2022/02/11 08:14:43;;;;;;;12.85;2.50;;;;;;;5.12;69.68;97631.50;2063721;28;20195;-60
2022/02/11 08:15:45;;;;;;;10.90;2.33;;;;;;;4.34;72.96;97629.44;2063297;28;20225;-60
2022/02/11 08:16:46;;;;;;;6.13;2.55;;;;;;;3.64;74.40;97632.13;2063678;28;20198;-60
2022/02/11 08:17:48;;;;;;;8.43;2.58;;;;;;;3.13;76.69;97643.66;2063701;28;20566;-61
2022/02/11 08:18:49;;;;;;;11.13;2.50;;;;;;;3.13;77.21;97648.84;2063723;28;20202;-61
2022/02/11 08:19:51;;;;;;;4.60;1.90;;;;;;;2.44;77.64;97643.38;2063560;28;20202;-60
2022/02/11 08:20:53;;;;;;;6.95;2.35;;;;;;;3.02;77.02;97648.22;2062937;28;20229;-60
2022/02/11 08:21:59;;;;;;;5.75;2.15;;;;;;;3.71;74.84;97655.25;2062249;28;20237;-60
2022/02/11 08:23:00;;;;;;;8.68;2.78;;;;;;;3.36;75.92;97649.16;2063594;28;20537;-61
2022/02/11 08:24:02;;;;;;;12.48;2.35;;;;;;;2.82;77.23;97652.09;2063458;28;20202;-60
2022/02/11 08:25:04;;;;;;;7.72;2.22;;;;;;;2.71;77.68;97654.06;2063252;28;20656;-60
2022/02/11 08:26:06;;;;;;;14.43;2.78;;;;;;;2.50;79.59;97658.78;2062410;28;20530;-60
2022/02/11 08:27:14;;;;;;;7.53;2.47;;;;;;;2.50;79.33;97663.94;2063675;28;20646;-60
2022/02/11 08:28:16;;;;;;;5.10;1.90;;;;;;;2.64;77.91;97653.31;2063020;28;20277;-60
2022/02/11 08:29:25;;;;;;;9.63;2.33;;;;;;;2.22;78.77;97652.44;2060984;28;20213;-61
2022/02/11 08:30:27;;;;;;;5.53;2.22;;;;;;;2.67;79.01;97655.00;2063254;28;20733;-60
2022/02/11 08:31:29;;;;;;;3.42;2.28;;;;;;;3.45;74.81;97652.41;2062699;28;20209;-60
2022/02/11 08:32:32;;;;;;;7.13;2.58;;;;;;;3.47;73.76;97650.63;2062439;28;20198;-60
2022/02/11 08:33:33;;;;;;;19.05;3.03;;;;;;;3.68;72.88;97654.47;2063657;28;20209;-60
2022/02/11 08:34:35;;;;;;;5.10;2.00;;;;;;;4.32;69.81;97641.59;2063599;28;20578;-60
2022/02/11 08:35:37;;;;;;;7.13;2.60;;;;;;;3.92;71.71;97648.69;2063241;28;20214;-60
2022/02/11 08:36:38;;;;;;;4.15;2.45;;;;;;;4.43;69.12;97652.53;2062925;28;20210;-60
2022/02/11 08:37:40;;;;;;;9.85;2.60;;;;;;;5.17;67.66;97652.97;2062558;28;20199;-60
2022/02/11 08:38:41;;;;;;;6.55;2.80;;;;;;;5.30;65.94;97661.25;2063693;28;20205;-61
2022/02/11 08:39:43;;;;;;;12.38;4.07;;;;;;;5.24;65.72;97653.66;2063645;28;20669;-63
2022/02/11 08:40:45;;;;;;;17.27;8.27;;;;;;;5.52;65.37;97654.47;2063172;28;20261;-63